Time,TemperatureF,DewpointF,PressureIn,WindDirection,WindDirectionDegrees,WindSpeedMPH,WindSpeedGustMPH,Humidity,HourlyPrecipIn,Conditions,Clouds,dailyrainin,SolarRadiationWatts/m^2,SoftwareType,DateUTC
2013-07-09 01:01:00,65.0,39.0,-100.00,SW,219,1.0,5.0,38,-99.99,,,0.00,0.000000,,2013-07-09 08:01:00,
2013-07-09 01:11:00,65.0,39.0,-100.00,SW,219,1.0,5.0,38,-99.99,,,0.00,0.000000,,2013-07-09 08:11:00,
2013-07-09 01:43:00,63.0,40.0,-100.00,WSW,249,1.0,4.0,42,-99.99,,,0.00,0.000000,,2013-07-09 08:43:00,
2013-07-09 01:52:00,63.0,40.0,-100.00,WSW,249,1.0,4.0,42,-99.99,,,0.00,0.000000,,2013-07-09 08:52:00,
2013-07-09 02:02:00,63.0,40.0,-100.00,WSW,249,1.0,4.0,42,-99.99,,,0.00,0.000000,,2013-07-09 09:02:00,
2013-07-09 02:11:00,63.0,40.0,-100.00,WSW,249,1.0,4.0,42,-99.99,,,0.00,0.000000,,2013-07-09 09:11:00,
2013-07-09 03:01:00,62.0,39.0,-100.00,West,265,1.0,3.0,43,-99.99,,,0.00,0.000000,,2013-07-09 10:01:00,
2013-07-09 03:11:00,62.0,39.0,-100.00,West,265,1.0,3.0,43,-99.99,,,0.00,0.000000,,2013-07-09 10:11:00,
2013-07-09 04:01:00,63.0,36.0,-100.00,West,259,1.0,3.0,36,-99.99,,,0.00,0.000000,,2013-07-09 11:01:00,
2013-07-09 04:11:00,63.0,36.0,-100.00,West,259,1.0,3.0,36,-99.99,,,0.00,0.000000,,2013-07-09 11:11:00,
2013-07-09 05:11:00,63.0,35.0,-100.00,West,280,0.0,3.0,35,-99.99,,,0.00,0.000000,,2013-07-09 12:11:00,
2013-07-09 09:01:00,72.0,48.0,-100.00,ENE,65,1.0,4.0,43,-99.99,,,0.00,223.000000,,2013-07-09 16:01:00,
2013-07-09 09:11:00,72.0,48.0,-100.00,ENE,65,1.0,4.0,43,-99.99,,,0.00,223.000000,,2013-07-09 16:11:00,
2013-07-09 09:43:00,72.0,45.0,-100.00,NE,42,2.0,5.0,38,0.00,,,0.00,537.000000,,2013-07-09 16:43:00,
2013-07-09 09:53:00,72.0,45.0,-100.00,NE,42,2.0,5.0,38,0.00,,,0.00,537.000000,,2013-07-09 16:53:00,
2013-07-09 10:02:00,72.0,45.0,-100.00,NE,42,2.0,5.0,38,0.00,,,0.00,537.000000,,2013-07-09 17:02:00,
2013-07-09 10:11:00,72.0,45.0,-100.00,NE,42,2.0,5.0,38,0.00,,,0.00,537.000000,,2013-07-09 17:11:00,
2013-07-09 10:45:00,76.0,46.0,-100.00,ESE,115,2.0,7.0,35,0.00,,,0.00,699.000000,,2013-07-09 17:45:00,
2013-07-09 10:53:00,76.0,46.0,-100.00,ESE,115,2.0,7.0,35,0.00,,,0.00,699.000000,,2013-07-09 17:53:00,
2013-07-09 11:01:00,76.0,46.0,-100.00,ESE,115,2.0,7.0,35,0.00,,,0.00,699.000000,,2013-07-09 18:01:00,
2013-07-09 11:11:00,76.0,46.0,-100.00,ESE,115,2.0,7.0,35,0.00,,,0.00,699.000000,,2013-07-09 18:11:00,
2013-07-09 11:43:00,79.0,44.0,-100.00,NE,49,3.0,7.0,29,0.00,,,0.00,832.000000,,2013-07-09 18:43:00,
2013-07-09 11:52:00,79.0,44.0,-100.00,NE,49,3.0,7.0,29,0.00,,,0.00,832.000000,,2013-07-09 18:52:00,
2013-07-09 12:01:00,79.0,44.0,-100.00,NE,49,3.0,7.0,29,0.00,,,0.00,832.000000,,2013-07-09 19:01:00,
2013-07-09 12:11:00,79.0,44.0,-100.00,NE,49,3.0,7.0,29,0.00,,,0.00,832.000000,,2013-07-09 19:11:00,
2013-07-09 12:42:00,81.0,47.0,-100.00,East,87,3.0,7.0,30,0.00,,,0.00,919.000000,,2013-07-09 19:42:00,
2013-07-09 12:52:00,81.0,47.0,-100.00,East,87,3.0,7.0,30,0.00,,,0.00,919.000000,,2013-07-09 19:52:00,
2013-07-09 13:01:00,81.0,47.0,-100.00,East,87,3.0,7.0,30,0.00,,,0.00,919.000000,,2013-07-09 20:01:00,
2013-07-09 13:11:00,81.0,47.0,-100.00,East,87,3.0,7.0,30,0.00,,,0.00,919.000000,,2013-07-09 20:11:00,
2013-07-09 13:43:00,84.0,44.0,-100.00,ENE,76,2.0,8.0,25,0.00,,,0.00,953.000000,,2013-07-09 20:43:00,
2013-07-09 13:52:00,84.0,44.0,-100.00,ENE,76,2.0,8.0,25,0.00,,,0.00,953.000000,,2013-07-09 20:52:00,
2013-07-09 14:01:00,84.0,44.0,-100.00,ENE,76,2.0,8.0,25,0.00,,,0.00,953.000000,,2013-07-09 21:01:00,
2013-07-09 14:11:00,84.0,44.0,-100.00,ENE,76,2.0,8.0,25,0.00,,,0.00,953.000000,,2013-07-09 21:11:00,
2013-07-09 14:42:00,85.0,46.0,-100.00,ENE,66,3.0,11.0,26,0.00,,,0.00,937.000000,,2013-07-09 21:42:00,
2013-07-09 14:52:00,85.0,46.0,-100.00,ENE,66,3.0,11.0,26,0.00,,,0.00,937.000000,,2013-07-09 21:52:00,
2013-07-09 15:01:00,85.0,46.0,-100.00,ENE,66,3.0,11.0,26,0.00,,,0.00,937.000000,,2013-07-09 22:01:00,
2013-07-09 15:11:00,85.0,46.0,-100.00,ENE,66,3.0,11.0,26,0.00,,,0.00,937.000000,,2013-07-09 22:11:00,
2013-07-09 15:42:00,89.0,46.0,-100.00,ENE,58,2.0,9.0,23,0.00,,,0.00,879.000000,,2013-07-09 22:42:00,
2013-07-09 15:53:00,89.0,46.0,-100.00,ENE,58,2.0,9.0,23,0.00,,,0.00,879.000000,,2013-07-09 22:53:00,
2013-07-09 16:01:00,89.0,46.0,-100.00,ENE,58,2.0,9.0,23,0.00,,,0.00,879.000000,,2013-07-09 23:01:00,
2013-07-09 16:11:00,89.0,46.0,-100.00,ENE,58,2.0,9.0,23,0.00,,,0.00,879.000000,,2013-07-09 23:11:00,
2013-07-09 16:43:00,89.0,46.0,-100.00,ENE,59,1.0,9.0,23,0.00,,,0.00,780.000000,,2013-07-09 23:43:00,
2013-07-09 16:53:00,89.0,46.0,-100.00,ENE,59,1.0,9.0,23,0.00,,,0.00,780.000000,,2013-07-09 23:53:00,
2013-07-09 17:01:00,89.0,46.0,-100.00,ENE,59,1.0,9.0,23,0.00,,,0.00,780.000000,,2013-07-10 00:01:00,
2013-07-09 17:11:00,89.0,46.0,-100.00,ENE,59,1.0,9.0,23,0.00,,,0.00,780.000000,,2013-07-10 00:11:00,
2013-07-09 17:43:00,88.0,50.0,-100.00,East,83,1.0,7.0,27,0.00,,,0.00,637.000000,,2013-07-10 00:43:00,
2013-07-09 17:52:00,88.0,50.0,-100.00,East,83,1.0,7.0,27,0.00,,,0.00,637.000000,,2013-07-10 00:52:00,
2013-07-09 18:01:00,88.0,50.0,-100.00,East,83,1.0,7.0,27,0.00,,,0.00,637.000000,,2013-07-10 01:01:00,
2013-07-09 18:11:00,88.0,50.0,-100.00,East,83,1.0,7.0,27,0.00,,,0.00,637.000000,,2013-07-10 01:11:00,
2013-07-09 18:43:00,88.0,49.0,-100.00,SW,228,2.0,10.0,26,0.00,,,0.00,468.000000,,2013-07-10 01:43:00,
2013-07-09 18:53:00,88.0,49.0,-100.00,SW,228,2.0,10.0,26,0.00,,,0.00,468.000000,,2013-07-10 01:53:00,
2013-07-09 19:01:00,88.0,49.0,-100.00,SW,228,2.0,10.0,26,0.00,,,0.00,468.000000,,2013-07-10 02:01:00,
2013-07-09 19:11:00,88.0,49.0,-100.00,SW,228,2.0,10.0,26,0.00,,,0.00,468.000000,,2013-07-10 02:11:00,
2013-07-09 19:43:00,82.0,42.0,-100.00,West,276,3.0,12.0,24,0.00,,,0.00,290.000000,,2013-07-10 02:43:00,
2013-07-09 19:53:00,82.0,42.0,-100.00,West,276,3.0,12.0,24,0.00,,,0.00,290.000000,,2013-07-10 02:53:00,
2013-07-09 20:01:00,82.0,42.0,-100.00,West,276,3.0,12.0,24,0.00,,,0.00,290.000000,,2013-07-10 03:01:00,